Weather observations for the past three days for
Menominee - Marinette Twin County Airport
Imperial (Metric)
Date Time (cdt) Wind (mph) Vis. (mi.) Weather Sky Cond. Temperature (ºF) Relative Humidity Wind Chill (°F) Heat Index (°F) Pressure Precipitation (in)
Air Dwpt 6 hour altimeter (in) sea level (mb) 1 hr 3 hr 6 hr
Max. Min.
05 12:57 E 12 10.00 Fair CLR 73.9 63 73.9 64.9 69% 30.07 1018.1
05 11:57 NE 14 10.00 Fair CLR 73 64 74% 30.09 1018.6
05 10:57 E 13 9.00 A Few Clouds FEW024 72 64.9 79% 30.09 1018.6
05 09:57 E 13 10.00 Overcast OVC018 70 64.9 84% 30.07 1018.1
05 08:57 E 9 10.00 Overcast OVC014 69.1 64.9 87% 30.07 1017.7
05 07:57 N 6 10.00 Overcast OVC012 66 66 100% 30.04 1017.0
05 06:57 NE 6 10.00 Overcast OVC009 64.9 64.9 66.9 64.9 100% 30.03 1016.5
05 05:57 NE 7 10.00 Overcast OVC007 64.9 64.9 100% 30.01 1015.9
05 04:57 N 7 10.00 Overcast OVC009 64.9 64.9 100% 30.01 1015.8
05 03:57 N 7 10.00 Overcast OVC007 66 66 100% 30.01 1015.9
05 02:57 N 7 9.00 Overcast OVC007 66 66 100% 30 1015.7
05 01:57 N 6 10.00 Overcast OVC007 66 66 100% 30 1015.6
05 00:57 N 7 10.00 Overcast OVC007 66.9 66.9 70 66.9 100% 30 1015.6 0.01
04 23:57 NW 5 10.00 Overcast OVC009 66.9 66.9 100% 30 1015.6
04 22:57 NE 5 9.00 Overcast OVC007 69.1 69.1 100% 30 1015.5
04 21:57 E 7 10.00 Overcast OVC007 69.1 69.1 100% 30 1015.6 0.01
04 20:57 NE 10 10.00 Overcast OVC007 69.1 69.1 100% 29.99 1015.3
04 19:57 NE 10 10.00 Overcast OVC005 69.1 69.1 100% 29.98 1015.1 0.01
04 18:57 NE 12 2.50 Light Rain Fog/Mist OVC007 70 70 75 70 100% 29.97 1014.7 0.02 0.02
04 17:57 NE 7 10.00 Overcast OVC018 72 71.1 97% 29.96 1014.3
04 16:57 E 7 10.00 Overcast OVC020 73 70 90% 29.94 1013.6
04 15:57 E 7 10.00 Overcast OVC020 73 71.1 94% 29.94 1013.4
04 14:57 E 5 10.00 Overcast OVC020 73.9 70 88% 29.95 1013.8
04 13:57 S 5 10.00 Overcast OVC022 73.9 70 88% 29.95 1013.8
04 12:57 S 6 10.00 Overcast SCT011 OVC018 73.9 70 75 70 88% 29.94 1013.4 0.01
04 11:57 SE 7 10.00 Overcast OVC015 75 71.1 88% 75 29.95 1013.8
04 10:57 Vrbl 3 10.00 Overcast BKN012 BKN016 OVC055 73 71.1 94% 29.95 1014.0
04 09:57 Calm 10.00 Overcast BKN008 OVC040 72 72 100% 29.94 1013.7 0.01
04 08:57 SW 6 10.00 Overcast OVC015 71.1 71.1 100% 29.95 1014.1 0.01
04 07:57 S 7 7.00 Light Rain OVC008 70 70 100% 29.95 1013.7
04 06:57 SE 9 10.00 Overcast BKN008 OVC011 70 70 70 69.1 100% 29.92 1013.0 0.16
04 05:57 E 12 10.00 Overcast OVC008 70 70 100% 29.92 1012.9 0.01
04 04:57 E 12 G 18 6.00 Rain Fog/Mist BKN008 OVC018 69.1 69.1 100% 29.94 1013.5 0.15
04 03:57 S 3 10.00 Overcast OVC008 70 70 100% 29.95 1013.9
04 02:57 Calm 10.00 Light Rain OVC008 70 70 100% 29.93 1013.2
04 01:57 SE 7 10.00 Mostly Cloudy SCT008 BKN100 69.1 69.1 100% 29.92 1012.9
04 00:57 SE 9 10.00 Partly Cloudy FEW080 SCT110 69.1 66 70 66 90% 29.94 1013.7
03 23:57 E 3 10.00 Fair CLR 66.9 66 97% 29.97 1014.4
03 22:57 E 6 10.00 Fair CLR 69.1 64.9 87% 29.97 1014.3
03 21:57 Calm 10.00 Fair CLR 66.9 66.9 100% 29.99 1015.1
03 20:57 N 3 10.00 A Few Clouds FEW110 68 66 93% 29.98 1015.0
03 19:57 NE 5 10.00 Fair CLR 68 66 93% 29.97 1014.5
03 18:57 E 6 10.00 Fair CLR 70 66 72 70 87% 29.95 1014.0
03 17:57 NE 7 10.00 Fair CLR 71.1 66 84% 29.95 1013.9
03 16:57 E 6 10.00 Fair CLR 71.1 64.9 81% 29.94 1013.5
03 15:57 E 8 10.00 A Few Clouds FEW035 72 66 82% 29.94 1013.8
03 14:57 E 8 9.00 Partly Cloudy FEW039 SCT060 72 64.9 79% 29.96 1014.3
03 13:57 E 12 10.00 A Few Clouds FEW011 72 68 87% 29.95 1014.1
03 12:57 E 10 10.00 Fair CLR 71.1 66.9 72 68 87% 29.95 1013.9 0.01 0.18
03 11:57 SW 3 10.00 Thunderstorm in Vicinity OVC035 69.1 66.9 93% 29.99 1015.1 0.01
03 10:57 NE 7 7.00 Thunderstorm in Vicinity Light Rain SCT014 BKN028 OVC070 69.1 69.1 100% 29.97 1014.7 0.16
03 09:57 E 7 10.00 Overcast OVC030 71.1 68 90% 29.95 1014.0
03 08:57 E 9 10.00 Overcast OVC029 71.1 68 90% 29.95 1013.8
03 07:57 E 9 10.00 Overcast OVC027 71.1 68 90% 29.95 1013.8
03 06:57 E 7 10.00 Overcast OVC025 70 69.1 71.1 68 97% 29.95 1013.9
03 05:57 E 8 9.00 Overcast OVC025 70 66 87% 29.94 1013.6
03 04:57 E 6 6.00 Fog/Mist OVC025 71.1 68 90% 29.95 1013.6
03 03:57 E 6 10.00 Fair CLR 69.1 68 96% 29.93 1013.2
03 02:57 E 5 10.00 Fair CLR 69.1 69.1 100% 29.94 1013.3
03 01:57 Calm 10.00 Fair CLR 68 68 100% 29.94 1013.4
03 00:57 NE 3 8.00 A Few Clouds FEW110 69.1 69.1 75.9 68 100% 29.93 1013.2
02 23:57 NE 3 10.00 Mostly Cloudy BKN110 69.1 69.1 100% 29.92 1012.9
02 22:57 Calm 10.00 Fair CLR 70 69.1 97% 29.92 1012.8
02 21:57 Calm 10.00 Fair CLR 69.1 69.1 100% 29.92 1012.6
02 20:57 SW 3 10.00 Fair CLR 72 68 87% 29.91 1012.3
02 19:57 Calm 10.00 Fair CLR 72 66.9 84% 29.89 1011.9
02 18:57 S 5 10.00 Fair CLR 75.9 68 82 75.9 77% 77 29.89 1011.9
02 17:57 SW 6 10.00 Fair CLR 80.1 66.9 64% 82 29.89 1011.8
02 16:57 SW 8 10.00 A Few Clouds FEW042 81 66 61% 83 29.89 1011.8
02 15:57 S 8 10.00 Fair CLR 81 66 61% 83 29.9 1012.1
02 14:57 W 5 10.00 Fair CLR 81 64 57% 83 29.91 1012.4
02 13:57 SW 6 10.00 Fair CLR 79 64 60% 81 29.92 1012.9
Date Time (cdt) Wind (mph) Vis. (mi.) Weather Sky Cond. Air Dwpt Max. Min. Relative Humidity Wind Chill (°F) Heat Index (°F) altimeter (in) sea level (mb) 1 hr 3 hr 6 hr
6 hour
Temperature (ºF) Pressure Precipitation (in)